Time;durP1;ratioP1;P1;durP2;ratioP2;P2;SDS_P1;SDS_P2;PMS_P1;PMS_P2;Temp;Humidity;BMP_temperature;BMP_pressure;BME280_temperature;BME280_humidity;BME280_pressure;Samples;Min_cycle;Max_cycle;Signal;HPM_P1;HPM_P2
2021/09/11 00:01:38;;;;;;;34.88;20.23;;;;;;;17.95;55.64;101334.56;5033753;28;20068;-69
2021/09/11 00:04:04;;;;;;;31.05;17.88;;;;;;;17.89;56.15;101340.22;5033844;28;20041;-69
2021/09/11 00:06:29;;;;;;;29.65;17.40;;;;;;;17.98;56.11;101344.94;5033863;28;20061;-77
2021/09/11 00:08:55;;;;;;;32.25;18.52;;;;;;;17.88;55.72;101335.91;5034879;28;20597;-78
2021/09/11 00:11:20;;;;;;;28.80;18.17;;;;;;;17.68;56.00;101333.66;5037787;28;20033;-77
2021/09/11 00:13:48;;;;;;;35.83;18.27;;;;;;;17.89;55.60;101334.09;5037435;28;20528;-77
2021/09/11 00:16:13;;;;;;;38.00;19.67;;;;;;;17.26;57.12;101333.56;5035530;28;20033;-77
2021/09/11 00:18:44;;;;;;;36.53;19.73;;;;;;;17.67;55.94;101329.31;5018923;28;20029;-79
2021/09/11 00:21:12;;;;;;;34.05;20.30;;;;;;;17.65;55.99;101327.63;5035366;28;20051;-77
2021/09/11 00:23:38;;;;;;;42.58;19.67;;;;;;;17.53;56.10;101332.81;5037175;28;20351;-69
2021/09/11 00:26:04;;;;;;;32.55;19.17;;;;;;;17.70;55.89;101334.44;5038162;28;20033;-69
2021/09/11 00:28:29;;;;;;;37.08;20.75;;;;;;;17.60;56.35;101334.13;5036481;28;20048;-75
2021/09/11 00:30:55;;;;;;;48.40;22.52;;;;;;;17.51;56.12;101332.91;5041251;28;20037;-75
2021/09/11 00:33:21;;;;;;;36.50;18.77;;;;;;;17.54;56.22;101330.09;5040050;28;20521;-74
2021/09/11 00:35:46;;;;;;;37.08;19.13;;;;;;;17.65;55.94;101332.06;5035170;28;20497;-74
2021/09/11 00:38:14;;;;;;;36.20;19.67;;;;;;;17.77;55.87;101338.38;5035689;28;20033;-74
2021/09/11 00:40:39;;;;;;;46.25;21.75;;;;;;;17.45;56.32;101335.94;5035115;28;20040;-76
2021/09/11 00:43:08;;;;;;;36.97;20.20;;;;;;;17.55;55.87;101336.22;5035288;28;20442;-74
2021/09/11 00:45:33;;;;;;;49.03;21.88;;;;;;;17.59;56.25;101335.94;5019592;28;20033;-74
2021/09/11 00:48:01;;;;;;;53.70;22.63;;;;;;;17.13;57.58;101335.25;5040569;28;20040;-74
2021/09/11 00:50:27;;;;;;;41.60;21.48;;;;;;;17.16;57.70;101335.91;5026880;28;20446;-72
2021/09/11 00:52:53;;;;;;;40.90;22.17;;;;;;;17.44;57.03;101328.94;5043500;28;20030;-73
2021/09/11 00:55:24;;;;;;;48.45;22.30;;;;;;;17.34;57.19;101330.47;5039974;28;20078;-75
2021/09/11 00:57:49;;;;;;;47.35;21.23;;;;;;;17.33;57.11;101326.09;5039865;28;20382;-72
2021/09/11 01:00:18;;;;;;;49.10;21.27;;;;;;;17.01;57.73;101321.00;5038815;28;20040;-75
2021/09/11 01:02:43;;;;;;;35.80;19.42;;;;;;;17.39;56.65;101310.72;5037325;28;20408;-76
2021/09/11 01:05:18;;;;;;;38.80;19.42;;;;;;;17.51;56.60;101319.69;5038229;28;20336;-74
2021/09/11 01:07:45;;;;;;;35.00;20.42;;;;;;;17.55;56.32;101315.94;5036549;28;20390;-73
2021/09/11 01:10:11;;;;;;;40.85;20.80;;;;;;;17.54;56.66;101316.88;5036415;28;20037;-75
2021/09/11 01:12:38;;;;;;;32.08;19.00;;;;;;;17.63;56.33;101318.94;5036230;28;20034;-74
2021/09/11 01:15:05;;;;;;;59.78;22.50;;;;;;;17.56;56.28;101320.28;5037923;28;20035;-73
2021/09/11 01:17:31;;;;;;;37.35;20.58;;;;;;;17.58;56.68;101323.69;5045044;28;20029;-73
2021/09/11 01:19:56;;;;;;;45.45;21.67;;;;;;;17.57;56.76;101319.31;5054571;28;20409;-72
2021/09/11 01:22:22;;;;;;;52.35;22.83;;;;;;;16.81;59.17;101325.66;5037208;28;20314;-73
2021/09/11 01:25:00;;;;;;;63.10;23.33;;;;;;;17.09;58.01;101329.31;5058647;28;20112;-72
2021/09/11 01:27:27;;;;;;;47.40;22.60;;;;;;;17.15;57.97;101336.84;5037086;28;20505;-71
2021/09/11 01:30:14;;;;;;;44.03;22.63;;;;;;;17.20;57.75;101332.16;5039136;28;20025;-73
2021/09/11 01:32:40;;;;;;;48.72;23.55;;;;;;;16.77;59.06;101329.44;5037227;28;20042;-72
2021/09/11 01:35:07;;;;;;;48.03;21.98;;;;;;;17.30;57.72;101332.44;5039849;28;20037;-71
2021/09/11 01:37:35;;;;;;;47.08;24.10;;;;;;;16.69;59.41;101336.94;5040188;28;20025;-71
2021/09/11 01:40:01;;;;;;;54.30;25.73;;;;;;;17.24;57.87;101333.63;5048653;28;20060;-74
2021/09/11 01:42:27;;;;;;;48.75;23.42;;;;;;;17.16;58.08;101333.28;5036925;28;20041;-69
2021/09/11 01:44:58;;;;;;;48.70;24.33;;;;;;;17.14;58.18;101340.44;5040994;28;20087;-70
2021/09/11 01:47:24;;;;;;;58.55;24.73;;;;;;;16.74;59.02;101337.50;5035100;28;20128;-70
2021/09/11 01:49:51;;;;;;;52.92;25.25;;;;;;;17.06;58.56;101340.03;5037412;28;20111;-71
2021/09/11 01:52:16;;;;;;;56.38;26.00;;;;;;;16.88;58.87;101341.16;5037661;28;20064;-71
2021/09/11 01:54:42;;;;;;;57.13;25.48;;;;;;;17.16;58.33;101335.91;5036536;28;20052;-71
2021/09/11 01:57:10;;;;;;;52.67;24.48;;;;;;;17.37;57.75;101330.25;5056883;28;20054;-72
2021/09/11 01:59:36;;;;;;;50.17;24.17;;;;;;;17.49;57.52;101332.16;5042968;28;20036;-71
2021/09/11 02:02:06;;;;;;;51.40;26.20;;;;;;;17.41;57.49;101327.31;5037421;28;20033;-73
2021/09/11 02:04:33;;;;;;;50.90;23.08;;;;;;;17.51;57.05;101324.97;5041754;28;20045;-70
2021/09/11 02:06:59;;;;;;;45.97;24.25;;;;;;;17.46;57.18;101324.41;5038279;28;20612;-72
2021/09/11 02:09:24;;;;;;;47.42;22.92;;;;;;;17.21;57.75;101333.84;5052415;28;20561;-73
2021/09/11 02:11:52;;;;;;;44.80;22.67;;;;;;;17.33;57.38;101331.38;5036042;28;20037;-71
2021/09/11 02:14:18;;;;;;;48.40;25.15;;;;;;;17.12;57.38;101329.13;5036039;28;20204;-71
2021/09/11 02:16:43;;;;;;;49.65;25.15;;;;;;;17.00;57.80;101332.47;5036097;28;20390;-71
2021/09/11 02:19:09;;;;;;;44.90;22.90;;;;;;;16.98;57.71;101326.47;5038234;28;20127;-74
2021/09/11 02:21:34;;;;;;;41.97;22.80;;;;;;;17.36;56.89;101329.41;5037221;28;20029;-71
2021/09/11 02:24:03;;;;;;;50.42;23.90;;;;;;;17.41;56.80;101334.41;5038029;28;20037;-71
2021/09/11 02:26:28;;;;;;;43.08;21.92;;;;;;;17.50;56.63;101328.59;5035391;28;20060;-72
2021/09/11 02:28:53;;;;;;;46.10;23.17;;;;;;;17.56;56.71;101333.50;5038353;28;20057;-72
2021/09/11 02:31:19;;;;;;;43.03;23.52;;;;;;;17.39;56.83;101321.28;5043674;28;20095;-73
2021/09/11 02:33:47;;;;;;;45.63;23.52;;;;;;;17.51;56.66;101318.84;5055243;28;20063;-73
2021/09/11 02:36:13;;;;;;;44.47;22.13;;;;;;;17.65;56.29;101321.50;5034162;28;20037;-71
2021/09/11 02:38:39;;;;;;;46.47;24.25;;;;;;;17.56;56.67;101324.69;5040671;28;20029;-72
2021/09/11 02:41:04;;;;;;;44.45;23.27;;;;;;;17.61;56.30;101323.47;5040247;28;20029;-72
2021/09/11 02:43:30;;;;;;;43.25;23.25;;;;;;;17.60;56.46;101321.78;5034159;28;20048;-72
2021/09/11 02:45:56;;;;;;;38.55;21.55;;;;;;;17.67;56.51;101329.31;5038263;28;20028;-71
2021/09/11 02:48:21;;;;;;;48.60;23.05;;;;;;;17.68;56.29;101317.81;5036731;28;20037;-71
2021/09/11 02:50:47;;;;;;;40.17;22.85;;;;;;;17.69;56.10;101316.84;5037291;28;20344;-70
2021/09/11 02:53:12;;;;;;;43.63;23.15;;;;;;;17.64;56.40;101310.06;5037367;28;20032;-70
2021/09/11 02:55:38;;;;;;;42.60;23.00;;;;;;;17.73;56.11;101315.72;5040700;28;20449;-72
2021/09/11 02:58:03;;;;;;;48.92;24.67;;;;;;;17.74;55.95;101309.47;5036657;28;20064;-72
2021/09/11 03:00:29;;;;;;;41.03;23.00;;;;;;;17.71;56.20;101304.38;5034864;28;20120;-70
2021/09/11 03:02:54;;;;;;;39.30;21.40;;;;;;;17.67;56.08;101308.16;5035435;28;20068;-72
2021/09/11 03:05:19;;;;;;;43.60;22.30;;;;;;;17.59;56.28;101309.50;5034555;28;20037;-70
2021/09/11 03:07:45;;;;;;;45.65;24.05;;;;;;;17.56;56.07;101311.47;5037834;28;20033;-69
2021/09/11 03:10:10;;;;;;;42.88;24.27;;;;;;;17.58;56.03;101304.31;5036569;28;20033;-69
2021/09/11 03:12:36;;;;;;;40.20;21.23;;;;;;;17.59;56.06;101306.88;5039712;28;20037;-69
2021/09/11 03:15:02;;;;;;;41.88;22.17;;;;;;;17.68;55.78;101304.59;5035070;28;20034;-68
2021/09/11 03:17:27;;;;;;;40.30;21.92;;;;;;;17.68;55.63;101304.59;5036547;28;20291;-70
2021/09/11 03:19:53;;;;;;;37.63;21.67;;;;;;;17.63;55.67;101308.38;5035365;28;20146;-70
2021/09/11 03:22:18;;;;;;;40.33;21.45;;;;;;;17.54;55.84;101314.25;5033586;28;20047;-69
2021/09/11 03:24:43;;;;;;;41.00;22.85;;;;;;;17.56;56.20;101317.63;5041682;28;20071;-70
2021/09/11 03:27:09;;;;;;;40.58;22.33;;;;;;;17.59;56.02;101312.16;5052118;28;20033;-71
2021/09/11 03:29:34;;;;;;;42.13;23.00;;;;;;;17.64;55.84;101310.06;5034666;28;20036;-70
2021/09/11 03:32:00;;;;;;;38.55;20.92;;;;;;;17.70;55.86;101306.19;5043848;28;20040;-71
2021/09/11 03:34:25;;;;;;;40.78;21.80;;;;;;;17.74;55.86;101312.09;5036702;28;20544;-71
2021/09/11 03:36:51;;;;;;;41.75;22.58;;;;;;;17.74;55.86;101306.81;5034724;28;20128;-73
2021/09/11 03:39:16;;;;;;;44.72;22.90;;;;;;;17.71;55.63;101309.69;5035538;28;20040;-72
2021/09/11 03:41:42;;;;;;;43.83;24.45;;;;;;;17.69;55.55;101317.69;5034718;28;20142;-73
2021/09/11 03:44:08;;;;;;;40.25;21.60;;;;;;;17.67;55.99;101316.09;5035970;28;20772;-73
2021/09/11 03:46:34;;;;;;;43.75;23.65;;;;;;;17.63;56.00;101313.66;5034014;28;20075;-73
2021/09/11 03:48:59;;;;;;;44.17;24.17;;;;;;;17.29;56.90;101308.72;5036938;28;20611;-74
2021/09/11 03:51:25;;;;;;;43.75;23.08;;;;;;;17.51;56.41;101311.78;5051774;28;20040;-73
2021/09/11 03:53:50;;;;;;;48.50;24.50;;;;;;;17.47;56.18;101302.34;5031691;28;20124;-73
2021/09/11 03:56:15;;;;;;;44.78;23.30;;;;;;;17.48;55.89;101311.13;5032890;28;20109;-74
2021/09/11 03:58:41;;;;;;;43.47;24.38;;;;;;;17.48;56.00;101306.69;5037822;28;20059;-71
2021/09/11 04:01:06;;;;;;;43.05;21.52;;;;;;;17.50;55.73;101310.09;5033244;28;20249;-71
2021/09/11 04:03:32;;;;;;;41.78;21.90;;;;;;;17.45;56.26;101302.41;5038854;28;20501;-71
2021/09/11 04:06:01;;;;;;;43.92;24.05;;;;;;;17.47;55.82;101304.97;5035890;28;20044;-70
2021/09/11 04:08:30;;;;;;;52.35;25.60;;;;;;;17.32;56.40;101304.13;5032025;28;20128;-71
2021/09/11 04:10:56;;;;;;;47.00;25.73;;;;;;;17.23;56.98;101297.63;5038251;28;20043;-70
2021/09/11 04:13:21;;;;;;;49.58;23.13;;;;;;;17.34;56.43;101296.97;5054648;28;20039;-70
2021/09/11 04:15:47;;;;;;;42.55;22.40;;;;;;;17.28;56.46;101294.69;5037219;28;20025;-71
2021/09/11 04:18:12;;;;;;;45.88;23.65;;;;;;;17.28;56.52;101291.19;5033327;28;20033;-73
2021/09/11 04:20:38;;;;;;;41.28;21.02;;;;;;;17.29;56.31;101292.88;5040230;28;20035;-70
2021/09/11 04:23:03;;;;;;;46.72;21.85;;;;;;;17.22;56.81;101293.28;5040824;28;20032;-70
2021/09/11 04:25:29;;;;;;;42.97;22.58;;;;;;;17.26;56.48;101295.72;5032726;28;20041;-70
2021/09/11 04:27:54;;;;;;;39.95;21.60;;;;;;;17.11;57.00;101295.72;5035409;28;20468;-71
2021/09/11 04:30:20;;;;;;;41.53;21.40;;;;;;;17.28;56.57;101299.13;5040104;28;20036;-70
2021/09/11 04:32:45;;;;;;;41.88;20.20;;;;;;;17.20;56.84;101305.75;5036192;28;20056;-70
2021/09/11 04:35:11;;;;;;;45.58;20.48;;;;;;;17.32;56.61;101298.00;5032969;28;20401;-71
2021/09/11 04:37:36;;;;;;;37.08;19.38;;;;;;;17.41;56.42;101302.72;5050606;28;20470;-70
2021/09/11 04:40:02;;;;;;;36.10;19.55;;;;;;;17.46;56.14;101300.63;5033786;28;20040;-71
2021/09/11 04:42:28;;;;;;;32.55;18.77;;;;;;;17.48;56.15;101303.19;5040833;28;20041;-71
2021/09/11 04:44:54;;;;;;;37.25;19.40;;;;;;;17.47;55.96;101307.63;5034989;28;20045;-71
2021/09/11 04:47:19;;;;;;;37.00;19.45;;;;;;;17.21;56.76;101310.06;5036010;28;20060;-73
2021/09/11 04:49:44;;;;;;;42.88;19.67;;;;;;;17.23;56.90;101309.97;5034106;28;20053;-72
2021/09/11 04:52:10;;;;;;;37.55;18.63;;;;;;;17.21;56.81;101318.00;5034289;28;20430;-72
2021/09/11 04:54:36;;;;;;;42.30;21.67;;;;;;;16.52;58.66;101308.88;5033652;28;20031;-73
2021/09/11 04:57:01;;;;;;;39.05;21.15;;;;;;;17.06;57.26;101320.72;5034671;28;20124;-72
2021/09/11 04:59:26;;;;;;;39.08;19.25;;;;;;;17.13;57.20;101311.47;5033552;28;20098;-72
2021/09/11 05:01:52;;;;;;;39.33;19.98;;;;;;;17.23;56.85;101304.69;5034269;28;20060;-72
2021/09/11 05:04:20;;;;;;;36.67;19.83;;;;;;;17.08;57.16;101311.75;5034679;28;20483;-72
2021/09/11 05:06:45;;;;;;;39.10;19.65;;;;;;;17.23;56.68;101312.63;5043705;28;20116;-69
2021/09/11 05:09:13;;;;;;;40.53;20.52;;;;;;;17.23;56.87;101316.09;5035612;28;20036;-70
2021/09/11 05:11:38;;;;;;;33.40;17.45;;;;;;;17.27;56.65;101315.91;5037293;28;20034;-69
2021/09/11 05:14:04;;;;;;;38.10;19.52;;;;;;;17.22;56.73;101322.34;5038130;28;20025;-67
2021/09/11 05:16:29;;;;;;;38.85;19.63;;;;;;;17.18;56.96;101319.97;5032414;28;20186;-66
2021/09/11 05:18:55;;;;;;;38.38;19.42;;;;;;;17.17;57.08;101328.84;5034942;28;20090;-66
2021/09/11 05:21:20;;;;;;;39.72;21.75;;;;;;;17.21;56.87;101323.28;5036826;28;20097;-68
2021/09/11 05:23:46;;;;;;;42.25;19.92;;;;;;;17.26;57.05;101323.00;5034819;28;20037;-68
2021/09/11 05:26:11;;;;;;;42.35;20.15;;;;;;;17.21;57.08;101322.44;5037926;28;20061;-71
2021/09/11 05:28:37;;;;;;;35.88;20.20;;;;;;;17.19;56.99;101324.31;5036745;28;20429;-72
2021/09/11 05:31:02;;;;;;;45.20;21.90;;;;;;;17.18;57.02;101331.41;5033828;28;20117;-72
2021/09/11 05:33:28;;;;;;;40.03;20.48;;;;;;;17.28;56.82;101325.53;5032905;28;20104;-67
2021/09/11 05:35:53;;;;;;;38.10;21.05;;;;;;;17.35;56.73;101318.94;5037271;28;20033;-69
2021/09/11 05:38:19;;;;;;;35.72;19.60;;;;;;;17.41;56.57;101318.56;5035492;28;20121;-68
2021/09/11 05:40:44;;;;;;;38.45;20.58;;;;;;;17.45;56.05;101323.56;5037433;28;20478;-67
2021/09/11 05:43:10;;;;;;;40.58;21.48;;;;;;;17.48;56.50;101325.19;5037317;28;20028;-67
2021/09/11 05:45:35;;;;;;;36.80;19.50;;;;;;;17.43;56.20;101322.81;5038570;28;20036;-67
2021/09/11 05:48:01;;;;;;;38.90;19.55;;;;;;;17.55;56.22;101317.72;5038018;28;20029;-67
2021/09/11 05:50:26;;;;;;;38.38;21.05;;;;;;;17.24;56.88;101327.50;5036921;28;20037;-68
2021/09/11 05:52:52;;;;;;;35.42;19.35;;;;;;;17.22;56.81;101334.69;5036324;28;20037;-71
2021/09/11 05:55:17;;;;;;;31.80;18.38;;;;;;;17.47;56.15;101328.75;5036677;28;20026;-67
2021/09/11 05:57:43;;;;;;;37.83;19.27;;;;;;;17.24;56.73;101336.28;5037226;28;20529;-68
2021/09/11 06:00:09;;;;;;;36.67;19.05;;;;;;;17.33;56.60;101334.03;5035254;28;20845;-67
2021/09/11 06:02:37;;;;;;;39.97;18.85;;;;;;;17.35;56.46;101338.25;5040046;28;20052;-68
2021/09/11 06:05:03;;;;;;;32.22;18.45;;;;;;;17.53;56.01;101338.13;5042962;28;20037;-73
2021/09/11 06:07:28;;;;;;;41.70;21.17;;;;;;;17.54;55.90;101334.53;5038420;28;20071;-69
2021/09/11 06:09:54;;;;;;;36.35;20.08;;;;;;;17.44;56.24;101339.50;5037968;28;20032;-67
2021/09/11 06:12:19;;;;;;;32.95;17.27;;;;;;;17.77;55.50;101346.31;5033999;28;20041;-70
2021/09/11 06:14:45;;;;;;;38.42;22.95;;;;;;;17.90;55.67;101344.59;5038494;28;20032;-67
2021/09/11 06:17:10;;;;;;;36.55;20.30;;;;;;;17.55;55.75;101342.34;5037662;28;20041;-68
2021/09/11 06:19:36;;;;;;;35.90;18.00;;;;;;;17.56;55.84;101345.84;5033299;28;20102;-68
2021/09/11 06:22:03;;;;;;;36.05;20.25;;;;;;;17.69;55.68;101338.00;5037515;28;20125;-66
2021/09/11 06:24:29;;;;;;;36.67;18.42;;;;;;;17.61;55.70;101344.63;5040816;28;20116;-67
2021/09/11 06:26:55;;;;;;;36.83;20.02;;;;;;;17.50;55.96;101352.38;5035677;28;20170;-69
2021/09/11 06:29:20;;;;;;;33.75;18.08;;;;;;;17.65;55.57;101354.06;5034958;28;20273;-69
2021/09/11 06:31:46;;;;;;;39.42;18.15;;;;;;;17.78;55.16;101353.28;5036968;28;20029;-68
2021/09/11 06:34:11;;;;;;;35.47;19.65;;;;;;;17.82;54.95;101349.50;5042626;28;20087;-68
2021/09/11 06:36:37;;;;;;;33.75;19.23;;;;;;;17.56;55.62;101349.34;5037018;28;20648;-67
2021/09/11 06:39:03;;;;;;;37.15;20.00;;;;;;;17.10;56.31;101359.22;5036205;28;20029;-67
2021/09/11 06:41:28;;;;;;;41.92;19.25;;;;;;;17.02;56.49;101355.25;5036056;28;20989;-67
2021/09/11 06:43:54;;;;;;;37.33;20.73;;;;;;;16.87;57.01;101361.44;5038386;28;20043;-68
2021/09/11 06:46:19;;;;;;;40.33;20.50;;;;;;;17.35;56.14;101353.28;5036561;28;20178;-68
2021/09/11 06:48:45;;;;;;;34.00;17.77;;;;;;;17.41;55.20;101356.41;5036491;28;20035;-67
2021/09/11 06:51:11;;;;;;;31.92;17.63;;;;;;;17.42;55.25;101358.06;5034868;28;20046;-66
2021/09/11 06:53:36;;;;;;;33.10;17.60;;;;;;;17.57;54.83;101361.59;5037760;28;20044;-68
2021/09/11 06:56:02;;;;;;;30.83;18.27;;;;;;;17.90;54.30;101357.81;5035726;28;20037;-68
2021/09/11 06:58:27;;;;;;;30.05;17.25;;;;;;;18.01;53.70;101357.97;5035423;28;20033;-68
2021/09/11 07:00:53;;;;;;;37.75;18.25;;;;;;;17.49;54.59;101358.59;5036161;28;20390;-68
2021/09/11 07:03:18;;;;;;;31.73;18.20;;;;;;;17.32;54.99;101366.69;5035465;28;20120;-68
2021/09/11 07:05:44;;;;;;;32.42;17.80;;;;;;;17.39;54.70;101363.56;5052905;28;20037;-68
2021/09/11 07:08:09;;;;;;;32.35;16.90;;;;;;;17.31;54.10;101365.81;5044240;28;20191;-68
2021/09/11 07:10:35;;;;;;;26.23;15.77;;;;;;;17.74;54.10;101372.91;5036476;28;20056;-68
2021/09/11 07:13:00;;;;;;;37.92;17.70;;;;;;;18.08;53.06;101370.81;5035793;28;20070;-66
2021/09/11 07:15:26;;;;;;;27.23;15.68;;;;;;;18.61;52.35;101379.72;5034309;28;20097;-66
2021/09/11 07:17:52;;;;;;;30.67;15.93;;;;;;;18.58;51.47;101374.63;5035806;28;20520;-68
2021/09/11 07:20:18;;;;;;;26.73;15.85;;;;;;;18.72;51.49;101376.34;5033532;28;20037;-68
2021/09/11 07:22:44;;;;;;;25.55;15.57;;;;;;;19.30;50.34;101383.88;5035669;28;20083;-68
2021/09/11 07:25:10;;;;;;;28.85;14.48;;;;;;;18.53;50.68;101388.16;5034062;28;20037;-66
2021/09/11 07:27:36;;;;;;;24.83;14.40;;;;;;;19.12;49.64;101385.13;5041232;28;20512;-67
2021/09/11 07:30:02;;;;;;;25.92;13.30;;;;;;;19.30;49.45;101381.22;5034781;28;20033;-67
2021/09/11 07:32:27;;;;;;;20.65;13.85;;;;;;;19.36;48.92;101382.59;5034631;28;20033;-67
2021/09/11 07:34:54;;;;;;;22.23;13.27;;;;;;;19.47;48.06;101384.50;5032476;28;20487;-66
2021/09/11 07:37:19;;;;;;;19.92;11.75;;;;;;;20.09;47.10;101388.97;5034548;28;20033;-68
2021/09/11 07:39:47;;;;;;;20.00;11.18;;;;;;;19.26;47.34;101387.69;5031578;28;20448;-68
2021/09/11 07:42:12;;;;;;;16.75;10.13;;;;;;;18.59;49.64;101397.50;5034027;28;20102;-67
2021/09/11 07:44:38;;;;;;;22.33;12.38;;;;;;;18.94;49.50;101386.38;5039454;28;20041;-68
2021/09/11 07:47:03;;;;;;;21.95;11.60;;;;;;;19.05;48.73;101395.28;5034439;28;20112;-67
2021/09/11 07:49:29;;;;;;;25.42;11.18;;;;;;;19.07;48.93;101389.88;5034285;28;20037;-65
2021/09/11 07:51:54;;;;;;;22.65;11.15;;;;;;;18.55;49.60;101390.72;5051241;28;20029;-68
2021/09/11 07:54:20;;;;;;;19.02;11.45;;;;;;;18.32;50.21;101401.00;5032588;28;20029;-68
2021/09/11 07:56:45;;;;;;;19.52;10.70;;;;;;;18.95;48.21;101403.97;5033592;28;20040;-68
2021/09/11 07:59:11;;;;;;;18.83;11.65;;;;;;;17.99;50.61;101401.34;5032523;28;20073;-68
2021/09/11 08:01:36;;;;;;;19.95;11.57;;;;;;;19.22;48.40;101388.84;5032158;28;20079;-67
2021/09/11 08:04:02;;;;;;;21.00;12.18;;;;;;;20.10;47.68;101396.81;5035546;28;20407;-68
2021/09/11 08:06:28;;;;;;;17.90;11.75;;;;;;;21.26;44.34;101394.41;5033074;28;20043;-67
2021/09/11 08:08:53;;;;;;;16.95;12.02;;;;;;;21.47;43.70;101391.06;5053688;28;20045;-68
2021/09/11 08:11:18;;;;;;;18.33;11.80;;;;;;;20.78;44.30;101404.31;5034222;28;20039;-68
2021/09/11 08:13:44;;;;;;;22.25;12.35;;;;;;;19.60;46.99;101401.25;5035517;28;20032;-67
2021/09/11 08:16:10;;;;;;;22.92;12.85;;;;;;;19.19;48.37;101407.63;5034227;28;20492;-68
2021/09/11 08:18:36;;;;;;;25.20;13.20;;;;;;;19.01;49.56;101400.88;5036618;28;20044;-68
2021/09/11 08:21:03;;;;;;;23.92;13.82;;;;;;;18.77;48.85;101401.56;5035856;28;20025;-68
2021/09/11 08:23:29;;;;;;;26.13;15.40;;;;;;;19.02;48.50;101402.59;5031844;28;20040;-67
2021/09/11 08:25:55;;;;;;;21.35;14.10;;;;;;;18.60;50.07;101400.03;5041515;28;20048;-67
2021/09/11 08:28:20;;;;;;;23.83;14.15;;;;;;;18.55;50.22;101406.59;5032261;28;20507;-68
2021/09/11 08:30:46;;;;;;;27.52;16.42;;;;;;;18.14;51.08;101402.13;5034450;28;20053;-68
2021/09/11 08:33:13;;;;;;;26.58;15.82;;;;;;;18.64;50.51;101411.28;5036438;28;20029;-68
2021/09/11 08:35:39;;;;;;;30.50;16.17;;;;;;;19.11;49.65;101417.88;5033403;28;20036;-67
2021/09/11 08:38:05;;;;;;;28.50;14.88;;;;;;;19.11;49.93;101419.69;5034649;28;20036;-68
2021/09/11 08:40:31;;;;;;;28.25;17.25;;;;;;;19.09;48.85;101427.72;5034513;28;20029;-67
2021/09/11 08:42:58;;;;;;;23.95;14.90;;;;;;;18.62;50.19;101437.00;5035266;28;20658;-68
2021/09/11 08:45:23;;;;;;;26.95;15.63;;;;;;;17.94;51.44;101433.34;5032772;28;20048;-68
2021/09/11 08:47:49;;;;;;;32.72;18.08;;;;;;;18.01;52.28;101442.59;5035767;28;20014;-66
2021/09/11 08:50:17;;;;;;;30.77;16.83;;;;;;;17.96;52.85;101439.41;5049410;28;20043;-67
2021/09/11 08:52:44;;;;;;;26.17;16.92;;;;;;;17.96;51.96;101436.75;5034300;28;20409;-68
2021/09/11 08:55:11;;;;;;;28.23;16.90;;;;;;;18.30;50.95;101444.38;5040219;28;20048;-67
2021/09/11 08:57:36;;;;;;;26.23;16.98;;;;;;;17.49;53.62;101447.59;5031873;28;20436;-68
2021/09/11 09:00:08;;;;;;;28.13;18.02;;;;;;;17.93;53.22;101455.44;5033002;28;20042;-68
2021/09/11 09:02:34;;;;;;;28.85;17.15;;;;;;;18.14;52.35;101455.91;5039005;28;20032;-69
2021/09/11 09:05:02;;;;;;;30.17;19.05;;;;;;;17.57;53.06;101462.03;5034486;28;20033;-69
2021/09/11 09:07:40;;;;;;;32.20;17.77;;;;;;;17.01;54.17;101458.31;5033096;28;20044;-68
2021/09/11 09:10:17;;;;;;;30.10;18.35;;;;;;;17.35;54.23;101466.88;5042290;28;20402;-69
2021/09/11 09:12:47;;;;;;;32.53;18.83;;;;;;;17.43;54.18;101473.41;5038195;28;20032;-68
2021/09/11 09:15:15;;;;;;;36.85;18.08;;;;;;;18.04;52.58;101465.34;5035027;28;20043;-67
2021/09/11 09:17:42;;;;;;;26.45;17.02;;;;;;;18.05;52.08;101467.91;5042118;28;20029;-68
2021/09/11 09:20:20;;;;;;;27.75;17.80;;;;;;;17.72;52.42;101464.72;5028308;28;20036;-68
2021/09/11 09:22:49;;;;;;;31.92;17.48;;;;;;;18.15;51.55;101457.59;5055884;28;20029;-71
2021/09/11 09:25:22;;;;;;;28.40;18.13;;;;;;;18.63;50.01;101455.44;5041448;28;20141;-71
2021/09/11 09:27:53;;;;;;;26.73;16.00;;;;;;;19.32;49.93;101459.75;5038477;28;20040;-72
2021/09/11 09:30:20;;;;;;;29.60;17.50;;;;;;;19.19;49.78;101460.59;5037952;28;20402;-71
2021/09/11 09:32:50;;;;;;;25.17;16.38;;;;;;;19.68;48.83;101451.97;5039378;28;20036;-70
2021/09/11 09:35:18;;;;;;;30.00;17.25;;;;;;;18.97;49.33;101463.00;5050790;28;20120;-71
2021/09/11 09:37:58;;;;;;;33.42;17.30;;;;;;;19.41;48.15;101461.78;5040298;28;20386;-71
2021/09/11 09:40:45;;;;;;;32.95;18.35;;;;;;;19.16;48.99;101459.94;5042504;28;20417;-72
2021/09/11 09:43:28;;;;;;;27.25;17.23;;;;;;;19.01;49.14;101461.81;5039375;28;20060;-71
2021/09/11 09:46:10;;;;;;;26.05;17.20;;;;;;;19.01;48.75;101457.41;5041007;28;20116;-72
2021/09/11 09:48:39;;;;;;;28.35;16.85;;;;;;;18.31;50.14;101459.31;5045015;28;20516;-70
2021/09/11 09:51:10;;;;;;;27.80;16.65;;;;;;;18.27;50.06;101451.56;5040050;28;20035;-71
2021/09/11 09:53:37;;;;;;;26.40;16.20;;;;;;;18.69;50.02;101448.88;5037828;28;20500;-70
2021/09/11 09:56:03;;;;;;;30.10;17.17;;;;;;;18.80;49.65;101454.31;5041482;28;20033;-70
2021/09/11 09:58:30;;;;;;;22.35;15.75;;;;;;;18.94;49.83;101449.94;5035174;28;20192;-71
2021/09/11 10:00:56;;;;;;;25.58;15.73;;;;;;;17.79;51.85;101450.16;5042698;28;20106;-72
2021/09/11 10:03:22;;;;;;;28.45;16.63;;;;;;;18.48;50.90;101449.34;5040549;28;20466;-70
2021/09/11 10:05:50;;;;;;;29.80;16.83;;;;;;;17.98;51.94;101448.09;5037178;28;20029;-70
2021/09/11 10:08:17;;;;;;;26.58;17.67;;;;;;;18.34;50.90;101451.16;5033800;28;20025;-70
2021/09/11 10:10:45;;;;;;;25.00;15.57;;;;;;;17.68;52.72;101449.97;5038021;28;20093;-73
2021/09/11 10:13:15;;;;;;;25.70;15.82;;;;;;;18.62;50.18;101450.25;5035521;28;20044;-70
2021/09/11 10:15:52;;;;;;;28.98;15.75;;;;;;;18.04;51.10;101457.41;5038863;28;20029;-71
2021/09/11 10:18:30;;;;;;;30.30;16.30;;;;;;;18.04;51.61;101442.41;5034830;28;20041;-71
2021/09/11 10:21:17;;;;;;;26.30;17.02;;;;;;;17.91;51.99;101459.97;5037472;28;20044;-71
2021/09/11 10:24:03;;;;;;;29.35;18.05;;;;;;;18.48;50.40;101454.63;5041615;28;20376;-70
2021/09/11 10:26:52;;;;;;;32.75;18.67;;;;;;;18.35;50.70;101445.78;5018611;28;20049;-71
2021/09/11 10:29:33;;;;;;;25.73;17.15;;;;;;;18.85;50.41;101446.94;5026989;28;20086;-71
2021/09/11 10:32:08;;;;;;;26.13;17.00;;;;;;;18.50;50.00;101440.44;5037401;28;20029;-71
2021/09/11 10:34:50;;;;;;;30.65;16.70;;;;;;;17.75;52.13;101440.72;5025201;28;20037;-71
2021/09/11 10:37:45;;;;;;;41.88;18.70;;;;;;;18.25;51.65;101436.72;5042506;28;20505;-71
2021/09/11 10:40:25;;;;;;;28.05;19.05;;;;;;;18.27;50.59;101432.19;5035860;28;20091;-71
2021/09/11 10:43:01;;;;;;;29.95;16.60;;;;;;;19.44;48.28;101430.63;5037929;28;20115;-71
2021/09/11 10:45:53;;;;;;;39.67;17.60;;;;;;;20.35;46.32;101428.72;5037262;28;20096;-73
2021/09/11 10:48:39;;;;;;;27.27;18.20;;;;;;;19.64;47.28;101429.28;5026857;28;20053;-72
2021/09/11 10:51:33;;;;;;;32.42;18.13;;;;;;;19.11;48.26;101436.41;5036879;28;20040;-70
2021/09/11 10:54:09;;;;;;;24.63;16.83;;;;;;;19.77;48.76;101434.56;5038625;28;20241;-71
2021/09/11 10:56:36;;;;;;;24.83;16.42;;;;;;;19.22;48.59;101436.53;5031498;28;20048;-71
2021/09/11 10:59:14;;;;;;;24.42;16.25;;;;;;;19.44;48.53;101429.78;5038018;28;20033;-71
2021/09/11 11:02:17;;;;;;;26.35;17.33;;;;;;;18.86;49.93;101440.69;5036861;28;20056;-72
2021/09/11 11:04:48;;;;;;;23.00;16.95;;;;;;;18.71;50.07;101444.34;5035844;28;20505;-71
2021/09/11 11:07:35;;;;;;;29.88;16.52;;;;;;;18.64;50.74;101443.06;5036931;28;20037;-71
2021/09/11 11:10:02;;;;;;;24.98;16.40;;;;;;;18.87;50.66;101449.47;5053979;28;20052;-73
2021/09/11 11:12:32;;;;;;;25.98;16.00;;;;;;;18.14;51.23;101450.63;5040407;28;20096;-70